Time;durP1;ratioP1;P1;durP2;ratioP2;P2;SDS_P1;SDS_P2;PMS_P1;PMS_P2;Temp;Humidity;BMP_temperature;BMP_pressure;BME280_temperature;BME280_humidity;BME280_pressure;Samples;Min_cycle;Max_cycle;Signal;HPM_P1;HPM_P2
2023/12/01 00:00:21;;;;;;;;;;;6.60;99.90;;;;;;5016077;28;19913;-75
2023/12/01 00:02:47;;;;;;;;;;;6.60;99.90;;;;;;5016059;28;19917;-77
2023/12/01 00:05:12;;;;;;;;;;;6.70;99.90;;;;;;5015880;28;19914;-77
2023/12/01 00:07:38;;;;;;;;;;;6.60;99.90;;;;;;5015972;28;19909;-77
2023/12/01 00:10:04;;;;;;;;;;;6.60;99.90;;;;;;5014607;28;19952;-77
2023/12/01 00:12:29;;;;;;;;;;;6.60;99.90;;;;;;5006206;28;20007;-76
2023/12/01 00:14:55;;;;;;;;;;;6.60;99.90;;;;;;4996648;28;19910;-75
2023/12/01 00:17:20;;;;;;;;;;;6.60;99.90;;;;;;4993721;28;19918;-77
2023/12/01 00:19:46;;;;;;;;;;;6.70;99.90;;;;;;5014499;28;19913;-75
2023/12/01 00:22:12;;;;;;;;;;;6.70;99.90;;;;;;5001835;28;19917;-75
2023/12/01 00:24:38;;;;;;;;;;;6.80;99.90;;;;;;4998284;28;20385;-75
2023/12/01 00:27:03;;;;;;;;;;;6.80;99.90;;;;;;4996808;28;19910;-76
2023/12/01 00:29:29;;;;;;;;;;;6.90;99.90;;;;;;5015751;28;19916;-77
2023/12/01 00:31:54;;;;;;;;;;;6.90;99.90;;;;;;5015240;28;19926;-77
2023/12/01 00:34:20;;;;;;;;;;;6.90;99.90;;;;;;5011785;28;20376;-76
2023/12/01 00:36:45;;;;;;;;;;;6.90;99.90;;;;;;4996133;28;20296;-77
2023/12/01 00:39:12;;;;;;;;;;;7.10;99.90;;;;;;4995867;28;20361;-77
2023/12/01 00:41:37;;;;;;;;;;;7.20;99.90;;;;;;4995965;28;19921;-77
2023/12/01 00:44:03;;;;;;;;;;;7.20;99.90;;;;;;5012449;28;20287;-75
2023/12/01 00:46:29;;;;;;;;;;;7.30;99.90;;;;;;5015802;28;20307;-77
2023/12/01 00:48:54;;;;;;;;;;;7.30;99.90;;;;;;5015190;28;19956;-77
2023/12/01 00:51:20;;;;;;;;;;;7.40;99.90;;;;;;5015370;28;19917;-77
2023/12/01 00:53:46;;;;;;;;;;;7.40;99.90;;;;;;5015147;28;19909;-77
2023/12/01 00:56:12;;;;;;;;;;;7.40;99.90;;;;;;5014012;28;19920;-77
2023/12/01 00:58:37;;;;;;;;;;;7.40;99.90;;;;;;5014857;28;19913;-77
2023/12/01 01:01:05;;;;;;;;;;;7.40;99.90;;;;;;5015076;28;19909;-77
2023/12/01 01:03:30;;;;;;;;;;;7.40;99.90;;;;;;5012730;28;19936;-77
2023/12/01 01:05:56;;;;;;;;;;;7.40;99.90;;;;;;5014815;28;19909;-77
2023/12/01 01:08:21;;;;;;;;;;;7.40;99.90;;;;;;5014395;28;19913;-77
2023/12/01 01:10:48;;;;;;;;;;;7.30;99.90;;;;;;5014790;28;20022;-77
2023/12/01 01:13:14;;;;;;;;;;;7.20;99.90;;;;;;5014656;28;19960;-77
2023/12/01 01:15:40;;;;;;;;;;;7.20;99.90;;;;;;5013894;28;19910;-77
2023/12/01 01:18:06;;;;;;;;;;;7.10;99.90;;;;;;5012992;28;19918;-77
2023/12/01 01:20:32;;;;;;;;;;;7.10;99.90;;;;;;5006014;28;19913;-75
2023/12/01 01:22:57;;;;;;;;;;;7.00;99.90;;;;;;4995081;28;19929;-75
2023/12/01 01:25:23;;;;;;;;;;;7.00;99.90;;;;;;5010110;28;19910;-77
2023/12/01 01:27:49;;;;;;;;;;;7.00;99.90;;;;;;4994777;28;19933;-77
2023/12/01 01:30:14;;;;;;;;;;;7.00;99.90;;;;;;5006598;28;19956;-77
2023/12/01 01:32:40;;;;;;;;;;;7.00;99.90;;;;;;5014514;28;19928;-77
2023/12/01 01:35:05;;;;;;;;;;;6.90;99.90;;;;;;5014333;28;19917;-77
2023/12/01 01:37:31;;;;;;;;;;;6.90;99.90;;;;;;5013699;28;19919;-77
2023/12/01 01:39:56;;;;;;;;;;;6.90;99.90;;;;;;5009885;28;19917;-77
2023/12/01 01:42:22;;;;;;;;;;;6.90;99.90;;;;;;5008439;28;19913;-77
2023/12/01 01:44:47;;;;;;;;;;;6.90;99.90;;;;;;5009828;28;19940;-77
2023/12/01 01:47:13;;;;;;;;;;;6.90;99.90;;;;;;5010005;28;20220;-75
2023/12/01 01:49:39;;;;;;;;;;;6.80;99.90;;;;;;5009807;28;19920;-76
2023/12/01 01:52:05;;;;;;;;;;;6.70;99.90;;;;;;5007876;28;20014;-77
2023/12/01 01:54:30;;;;;;;;;;;6.70;99.90;;;;;;5009780;28;20340;-75
2023/12/01 01:56:57;;;;;;;;;;;6.70;99.90;;;;;;5009469;28;20414;-77
2023/12/01 01:59:22;;;;;;;;;;;6.70;99.90;;;;;;5009583;28;20308;-77
2023/12/01 02:01:49;;;;;;;;;;;6.60;99.90;;;;;;5009729;28;19917;-75
2023/12/01 02:04:15;;;;;;;;;;;6.70;99.90;;;;;;5009497;28;20004;-75
2023/12/01 02:06:41;;;;;;;;;;;6.70;99.90;;;;;;5009653;28;20359;-77
2023/12/01 02:09:07;;;;;;;;;;;6.80;99.90;;;;;;5009506;28;19913;-77
2023/12/01 02:11:33;;;;;;;;;;;6.80;99.90;;;;;;5009027;28;19917;-77
2023/12/01 02:14:01;;;;;;;;;;;6.80;99.90;;;;;;4989933;28;19914;-75
2023/12/01 02:16:28;;;;;;;;;;;6.90;99.90;;;;;;4990386;28;20301;-77
2023/12/01 02:18:54;;;;;;;;;;;6.90;99.90;;;;;;5002293;28;19968;-77
2023/12/01 02:21:22;;;;;;;;;;;6.80;99.90;;;;;;4992120;28;19961;-77
2023/12/01 02:23:47;;;;;;;;;;;6.80;99.90;;;;;;4997575;28;20645;-77
2023/12/01 02:26:13;;;;;;;;;;;6.80;99.90;;;;;;4989745;28;20005;-77
2023/12/01 02:28:38;;;;;;;;;;;6.90;99.90;;;;;;5003312;28;19920;-77
2023/12/01 02:31:04;;;;;;;;;;;6.90;99.90;;;;;;5009286;28;19913;-77
2023/12/01 02:33:30;;;;;;;;;;;6.70;99.90;;;;;;4996768;28;19926;-77
2023/12/01 02:35:55;;;;;;;;;;;6.60;99.90;;;;;;4989676;28;20015;-77
2023/12/01 02:38:21;;;;;;;;;;;6.60;99.90;;;;;;5004348;28;19949;-75
2023/12/01 02:40:49;;;;;;;;;;;6.50;99.90;;;;;;4994052;28;20368;-75
2023/12/01 02:43:18;;;;;;;;;;;6.50;99.90;;;;;;5021440;28;19920;-77
2023/12/01 02:45:44;;;;;;;;;;;6.60;99.90;;;;;;5017542;28;20253;-77
2023/12/01 02:48:10;;;;;;;;;;;6.50;99.90;;;;;;5035331;28;19917;-77
2023/12/01 02:50:36;;;;;;;;;;;6.50;99.90;;;;;;5019758;28;20026;-75
2023/12/01 02:53:02;;;;;;;;;;;6.50;99.90;;;;;;5019840;28;20016;-76
2023/12/01 02:55:27;;;;;;;;;;;6.50;99.90;;;;;;5020069;28;19967;-77
2023/12/01 02:57:53;;;;;;;;;;;6.60;99.90;;;;;;5019864;28;19910;-77
2023/12/01 03:00:19;;;;;;;;;;;6.70;99.90;;;;;;5019701;28;19964;-77
2023/12/01 03:02:46;;;;;;;;;;;6.60;99.90;;;;;;5018443;28;20277;-77
2023/12/01 03:05:11;;;;;;;;;;;6.60;99.90;;;;;;5017694;28;19913;-75
2023/12/01 03:07:40;;;;;;;;;;;6.60;99.90;;;;;;5019814;28;19913;-77
2023/12/01 03:10:09;;;;;;;;;;;6.60;99.90;;;;;;5019641;28;19916;-77
2023/12/01 03:12:39;;;;;;;;;;;6.60;99.90;;;;;;5019536;28;19956;-77
2023/12/01 03:15:05;;;;;;;;;;;6.60;99.90;;;;;;5019772;28;19909;-76
2023/12/01 03:17:31;;;;;;;;;;;6.70;99.90;;;;;;5019344;28;19918;-77
2023/12/01 03:19:57;;;;;;;;;;;6.80;99.90;;;;;;5017009;28;19936;-77
2023/12/01 03:22:23;;;;;;;;;;;6.80;99.90;;;;;;5024247;28;19913;-77
2023/12/01 03:24:49;;;;;;;;;;;6.80;99.90;;;;;;5025493;28;19917;-77
2023/12/01 03:27:18;;;;;;;;;;;6.80;99.90;;;;;;5001741;28;20285;-77
2023/12/01 03:29:44;;;;;;;;;;;6.80;99.90;;;;;;5019544;28;20376;-75
2023/12/01 03:32:10;;;;;;;;;;;6.80;99.90;;;;;;5017937;28;19925;-75
2023/12/01 03:34:35;;;;;;;;;;;6.80;99.90;;;;;;5009054;28;19910;-77
2023/12/01 03:37:01;;;;;;;;;;;6.90;99.90;;;;;;4999990;28;19910;-77
2023/12/01 03:39:26;;;;;;;;;;;6.80;99.90;;;;;;4999757;28;20335;-77
2023/12/01 03:41:52;;;;;;;;;;;6.80;99.90;;;;;;4999753;28;19918;-77
2023/12/01 03:44:18;;;;;;;;;;;6.70;99.90;;;;;;4999939;28;19961;-75
2023/12/01 03:46:44;;;;;;;;;;;6.70;99.90;;;;;;4999914;28;19943;-76
2023/12/01 03:49:09;;;;;;;;;;;6.70;99.90;;;;;;4999931;28;19910;-77
2023/12/01 03:51:36;;;;;;;;;;;6.70;99.90;;;;;;4998253;28;20284;-77
2023/12/01 03:54:01;;;;;;;;;;;6.70;99.90;;;;;;4996447;28;19932;-75
2023/12/01 03:56:27;;;;;;;;;;;6.70;99.90;;;;;;5008531;28;20311;-75
2023/12/01 03:58:54;;;;;;;;;;;6.70;99.90;;;;;;5016080;28;19909;-77
2023/12/01 04:01:20;;;;;;;;;;;6.70;99.90;;;;;;5016194;28;19910;-77
2023/12/01 04:03:45;;;;;;;;;;;6.60;99.90;;;;;;5015248;28;19916;-77
2023/12/01 04:06:11;;;;;;;;;;;6.60;99.90;;;;;;5014708;28;20474;-76
2023/12/01 04:08:37;;;;;;;;;;;6.50;99.90;;;;;;5016170;28;19960;-76
2023/12/01 04:11:03;;;;;;;;;;;6.40;99.90;;;;;;5016060;28;19910;-77
2023/12/01 04:13:28;;;;;;;;;;;6.30;99.90;;;;;;4999663;28;19926;-77
2023/12/01 04:15:54;;;;;;;;;;;6.20;99.90;;;;;;4996113;28;20285;-77
2023/12/01 04:18:19;;;;;;;;;;;6.30;99.90;;;;;;5003742;28;20008;-77
2023/12/01 04:20:45;;;;;;;;;;;6.30;99.90;;;;;;5011300;28;20372;-75
2023/12/01 04:23:10;;;;;;;;;;;6.30;99.90;;;;;;5005036;28;19916;-75
2023/12/01 04:25:40;;;;;;;;;;;6.30;99.90;;;;;;5015728;28;19960;-77
2023/12/01 04:28:06;;;;;;;;;;;6.40;99.90;;;;;;5006344;28;19913;-76
2023/12/01 04:30:32;;;;;;;;;;;6.30;99.90;;;;;;4996190;28;19916;-76
2023/12/01 04:32:59;;;;;;;;;;;6.40;99.90;;;;;;4995834;28;19922;-77
2023/12/01 04:35:26;;;;;;;;;;;6.40;99.90;;;;;;4996179;28;20353;-77
2023/12/01 04:37:52;;;;;;;;;;;6.40;99.90;;;;;;4995908;28;20301;-77
2023/12/01 04:40:17;;;;;;;;;;;6.50;99.90;;;;;;4995697;28;19914;-77
2023/12/01 04:42:44;;;;;;;;;;;6.50;99.90;;;;;;4997040;28;19909;-77
2023/12/01 04:45:13;;;;;;;;;;;6.50;99.90;;;;;;5015643;28;19960;-77
2023/12/01 04:47:42;;;;;;;;;;;6.40;99.90;;;;;;5015568;28;19919;-75
2023/12/01 04:50:14;;;;;;;;;;;6.40;99.90;;;;;;5015168;28;19909;-75
2023/12/01 04:52:43;;;;;;;;;;;6.40;99.90;;;;;;5015291;28;19921;-77
2023/12/01 04:55:11;;;;;;;;;;;6.30;99.90;;;;;;5015310;28;19913;-77
2023/12/01 04:57:36;;;;;;;;;;;6.30;99.90;;;;;;5015227;28;19917;-77
2023/12/01 05:00:18;;;;;;;;;;;6.30;99.90;;;;;;5030321;28;19992;-77
2023/12/01 05:02:50;;;;;;;;;;;6.20;99.90;;;;;;5014619;28;19916;-77
2023/12/01 05:05:16;;;;;;;;;;;6.20;99.90;;;;;;5015093;28;19910;-76
2023/12/01 05:07:42;;;;;;;;;;;6.20;99.90;;;;;;5014901;28;20391;-77
2023/12/01 05:10:14;;;;;;;;;;;6.20;99.90;;;;;;5014831;28;20284;-76
2023/12/01 05:12:49;;;;;;;;;;;6.20;99.90;;;;;;5005355;28;19953;-77
2023/12/01 05:15:18;;;;;;;;;;;6.20;99.90;;;;;;4993837;28;19910;-76
2023/12/01 05:17:45;;;;;;;;;;;6.20;99.90;;;;;;4998164;28;19921;-77
2023/12/01 05:20:15;;;;;;;;;;;6.20;99.90;;;;;;5010565;28;19979;-78
2023/12/01 05:22:43;;;;;;;;;;;6.20;99.90;;;;;;5005650;28;19917;-77
2023/12/01 05:25:15;;;;;;;;;;;6.30;99.90;;;;;;4997962;28;19914;-77
2023/12/01 05:27:50;;;;;;;;;;;6.20;99.90;;;;;;4994221;28;20358;-75
2023/12/01 05:30:19;;;;;;;;;;;6.20;99.90;;;;;;4995916;28;19936;-77
2023/12/01 05:32:45;;;;;;;;;;;6.30;99.90;;;;;;4995433;28;19971;-77
2023/12/01 05:35:12;;;;;;;;;;;6.30;99.90;;;;;;4995872;28;19910;-77
2023/12/01 05:37:39;;;;;;;;;;;6.30;99.90;;;;;;5010129;28;20377;-76
2023/12/01 05:40:14;;;;;;;;;;;6.30;99.90;;;;;;5014412;28;19949;-75
2023/12/01 05:42:41;;;;;;;;;;;6.20;99.90;;;;;;5013388;28;19910;-75
2023/12/01 05:45:11;;;;;;;;;;;6.10;99.90;;;;;;4994665;28;19975;-77
2023/12/01 05:47:43;;;;;;;;;;;6.10;99.90;;;;;;4994455;28;19953;-77
2023/12/01 05:50:25;;;;;;;;;;;6.20;99.90;;;;;;4994360;28;19910;-77
2023/12/01 05:52:53;;;;;;;;;;;6.20;99.90;;;;;;5009323;28;19917;-75
2023/12/01 05:55:19;;;;;;;;;;;6.20;99.90;;;;;;4997325;28;19921;-76
2023/12/01 05:57:49;;;;;;;;;;;6.20;99.90;;;;;;5013958;28;19949;-77
2023/12/01 06:00:15;;;;;;;;;;;6.20;99.90;;;;;;5012321;28;20378;-77
2023/12/01 06:02:48;;;;;;;;;;;6.20;99.90;;;;;;5007497;28;19921;-76
2023/12/01 06:05:15;;;;;;;;;;;6.30;99.90;;;;;;5002798;28;19917;-76
2023/12/01 06:07:45;;;;;;;;;;;6.30;99.90;;;;;;5013758;28;19914;-75
2023/12/01 06:10:11;;;;;;;;;;;6.40;99.90;;;;;;5013683;28;20292;-76
2023/12/01 06:12:39;;;;;;;;;;;6.40;99.90;;;;;;5013544;28;19967;-77
2023/12/01 06:15:06;;;;;;;;;;;6.40;99.90;;;;;;5012826;28;19988;-77
2023/12/01 06:17:31;;;;;;;;;;;6.40;99.90;;;;;;5028035;28;20000;-75
2023/12/01 06:19:57;;;;;;;;;;;6.40;99.90;;;;;;5012890;28;20431;-77
2023/12/01 06:22:23;;;;;;;;;;;6.40;99.90;;;;;;4997985;28;19914;-77
2023/12/01 06:24:49;;;;;;;;;;;6.30;99.90;;;;;;4994028;28;19916;-75
2023/12/01 06:27:14;;;;;;;;;;;6.30;99.90;;;;;;4994358;28;19961;-77
2023/12/01 06:29:40;;;;;;;;;;;6.20;99.90;;;;;;4993748;28;19911;-76
2023/12/01 06:32:05;;;;;;;;;;;6.20;99.90;;;;;;4993714;28;19967;-76
2023/12/01 06:34:31;;;;;;;;;;;6.20;99.90;;;;;;4994111;28;20316;-77
2023/12/01 06:36:59;;;;;;;;;;;6.20;99.90;;;;;;4992688;28;19910;-75
2023/12/01 06:39:27;;;;;;;;;;;6.10;99.90;;;;;;5013356;28;19916;-75
2023/12/01 06:41:53;;;;;;;;;;;6.10;99.90;;;;;;5013475;28;19916;-75
2023/12/01 06:44:19;;;;;;;;;;;6.10;99.90;;;;;;5013318;28;20292;-77
2023/12/01 06:46:45;;;;;;;;;;;6.10;99.90;;;;;;5012089;28;19917;-77
2023/12/01 06:49:10;;;;;;;;;;;6.10;99.90;;;;;;5012741;28;20338;-77
2023/12/01 06:51:36;;;;;;;;;;;6.10;99.90;;;;;;5013415;28;19916;-76
2023/12/01 06:54:01;;;;;;;;;;;6.10;99.90;;;;;;5028388;28;20389;-76
2023/12/01 06:56:27;;;;;;;;;;;6.10;99.90;;;;;;5013055;28;19909;-75
2023/12/01 06:58:52;;;;;;;;;;;6.10;99.90;;;;;;5002082;28;20381;-77
2023/12/01 07:01:20;;;;;;;;;;;6.10;99.90;;;;;;5012234;28;19925;-75
2023/12/01 07:03:46;;;;;;;;;;;6.00;99.90;;;;;;5012397;28;19916;-76
2023/12/01 07:06:12;;;;;;;;;;;6.00;99.90;;;;;;5003192;28;20293;-76
2023/12/01 07:08:38;;;;;;;;;;;6.00;99.90;;;;;;4991072;28;20284;-77
2023/12/01 07:11:04;;;;;;;;;;;5.90;99.90;;;;;;5005215;28;20347;-77
2023/12/01 07:13:30;;;;;;;;;;;5.90;99.90;;;;;;5007862;28;19921;-77
2023/12/01 07:15:56;;;;;;;;;;;6.00;99.90;;;;;;5003081;28;19961;-76
2023/12/01 07:18:21;;;;;;;;;;;6.00;99.90;;;;;;5001338;28;20008;-76
2023/12/01 07:20:46;;;;;;;;;;;6.00;99.90;;;;;;5003311;28;20008;-77
2023/12/01 07:23:12;;;;;;;;;;;6.10;99.90;;;;;;5006727;28;19910;-76
2023/12/01 07:25:38;;;;;;;;;;;6.20;99.90;;;;;;5019599;28;19917;-76
2023/12/01 07:28:04;;;;;;;;;;;6.20;99.90;;;;;;5006984;28;20012;-77
2023/12/01 07:30:29;;;;;;;;;;;6.20;99.90;;;;;;5008097;28;19981;-77
2023/12/01 07:32:55;;;;;;;;;;;6.30;99.90;;;;;;5014538;28;20033;-75
2023/12/01 07:35:21;;;;;;;;;;;6.40;99.90;;;;;;5014291;28;19917;-76
2023/12/01 07:37:48;;;;;;;;;;;6.40;99.90;;;;;;5029474;28;20282;-77
2023/12/01 07:40:19;;;;;;;;;;;6.50;99.90;;;;;;5011814;28;19971;-76
2023/12/01 07:42:45;;;;;;;;;;;6.60;99.90;;;;;;4994904;28;19914;-75
2023/12/01 07:45:11;;;;;;;;;;;6.60;99.90;;;;;;4999378;28;19914;-76
2023/12/01 07:47:37;;;;;;;;;;;6.70;99.90;;;;;;5006449;28;20343;-77
2023/12/01 07:50:04;;;;;;;;;;;6.70;99.90;;;;;;5013582;28;20008;-77
2023/12/01 07:52:31;;;;;;;;;;;6.70;99.90;;;;;;5009962;28;19925;-77
2023/12/01 07:54:57;;;;;;;;;;;6.80;99.90;;;;;;5008451;28;19917;-76
2023/12/01 07:57:23;;;;;;;;;;;6.80;99.90;;;;;;5003954;28;19940;-76
2023/12/01 07:59:48;;;;;;;;;;;6.90;99.90;;;;;;5014192;28;19920;-75
2023/12/01 08:02:14;;;;;;;;;;;6.90;99.90;;;;;;5012255;28;19920;-77
2023/12/01 08:04:40;;;;;;;;;;;6.90;99.90;;;;;;5028450;28;19910;-77
2023/12/01 08:07:07;;;;;;;;;;;7.00;99.90;;;;;;5000721;28;19914;-77
2023/12/01 08:09:33;;;;;;;;;;;7.00;99.90;;;;;;5011982;28;19960;-75
2023/12/01 08:11:59;;;;;;;;;;;7.00;99.90;;;;;;5013732;28;19925;-76
2023/12/01 08:14:25;;;;;;;;;;;7.10;99.90;;;;;;5012385;28;20039;-76
2023/12/01 08:16:51;;;;;;;;;;;7.10;99.90;;;;;;5013447;28;19925;-78
2023/12/01 08:19:16;;;;;;;;;;;7.10;99.90;;;;;;5004450;28;19969;-76
2023/12/01 08:21:42;;;;;;;;;;;7.20;99.90;;;;;;5003693;28;20266;-75
2023/12/01 08:24:07;;;;;;;;;;;7.20;99.90;;;;;;5012382;28;20264;-75
2023/12/01 08:26:33;;;;;;;;;;;7.20;99.90;;;;;;4999991;28;19973;-76
2023/12/01 08:28:58;;;;;;;;;;;7.20;99.90;;;;;;5006928;28;20400;-77
2023/12/01 08:31:24;;;;;;;;;;;7.20;99.90;;;;;;5011004;28;19918;-77
2023/12/01 08:33:50;;;;;;;;;;;7.20;99.90;;;;;;5025551;28;20299;-77
2023/12/01 08:36:15;;;;;;;;;;;7.20;99.90;;;;;;5003118;28;19909;-76
2023/12/01 08:38:42;;;;;;;;;;;7.20;99.90;;;;;;5004357;28;20393;-76
2023/12/01 08:41:07;;;;;;;;;;;7.20;99.90;;;;;;5010951;28;19993;-76
2023/12/01 08:43:33;;;;;;;;;;;7.20;99.90;;;;;;5010627;28;20056;-76
2023/12/01 08:45:58;;;;;;;;;;;7.20;99.90;;;;;;4999749;28;19925;-76
2023/12/01 08:48:24;;;;;;;;;;;7.20;99.90;;;;;;5000333;28;19924;-76
2023/12/01 08:50:49;;;;;;;;;;;7.30;99.90;;;;;;5000342;28;19918;-75
2023/12/01 08:53:15;;;;;;;;;;;7.30;99.90;;;;;;5018184;28;19922;-76
2023/12/01 08:55:40;;;;;;;;;;;7.30;99.90;;;;;;5002486;28;19917;-76
2023/12/01 08:58:06;;;;;;;;;;;7.40;99.90;;;;;;5006057;28;19975;-75
2023/12/01 09:00:31;;;;;;;;;;;7.40;99.90;;;;;;5006300;28;20285;-76
2023/12/01 09:02:57;;;;;;;;;;;7.40;99.90;;;;;;5008926;28;19925;-76
2023/12/01 09:05:23;;;;;;;;;;;7.40;99.90;;;;;;5008602;28;19913;-77
2023/12/01 09:07:48;;;;;;;;;;;7.40;99.90;;;;;;4996433;28;20401;-77
2023/12/01 09:10:15;;;;;;;;;;;7.30;99.90;;;;;;4998702;28;20078;-75
2023/12/01 09:12:41;;;;;;;;;;;7.30;99.90;;;;;;5011945;28;19963;-75
2023/12/01 09:15:07;;;;;;;;;;;7.30;99.90;;;;;;5012347;28;20399;-76
2023/12/01 09:17:33;;;;;;;;;;;7.30;99.90;;;;;;5006735;28;19918;-75
2023/12/01 09:19:58;;;;;;;;;;;7.30;99.90;;;;;;5004170;28;20010;-77
2023/12/01 09:22:24;;;;;;;;;;;7.30;99.90;;;;;;5005092;28;20009;-77
2023/12/01 09:24:49;;;;;;;;;;;7.30;99.90;;;;;;5007756;28;19913;-75
2023/12/01 09:27:15;;;;;;;;;;;7.40;99.90;;;;;;5006969;28;19913;-76
2023/12/01 09:29:40;;;;;;;;;;;7.40;99.90;;;;;;4999971;28;19921;-75
2023/12/01 09:32:06;;;;;;;;;;;7.50;99.90;;;;;;4999639;28;19957;-75
2023/12/01 09:34:31;;;;;;;;;;;7.60;99.90;;;;;;4993132;28;19921;-77
2023/12/01 09:36:57;;;;;;;;;;;7.70;99.90;;;;;;5008648;28;19924;-76
2023/12/01 09:39:22;;;;;;;;;;;7.70;99.90;;;;;;5012319;28;19932;-76
2023/12/01 09:41:50;;;;;;;;;;;7.70;99.90;;;;;;4998377;28;19921;-77
2023/12/01 09:44:16;;;;;;;;;;;7.70;99.90;;;;;;4994018;28;19909;-77
2023/12/01 09:46:43;;;;;;;;;;;7.70;99.90;;;;;;5008135;28;19928;-77
2023/12/01 09:49:08;;;;;;;;;;;7.80;99.90;;;;;;5003646;28;20304;-75
2023/12/01 09:51:36;;;;;;;;;;;7.90;99.90;;;;;;5004937;28;19958;-76
2023/12/01 09:54:05;;;;;;;;;;;7.90;99.90;;;;;;5012084;28;19910;-75
2023/12/01 09:56:31;;;;;;;;;;;7.90;99.90;;;;;;5006030;28;19965;-75
2023/12/01 09:58:57;;;;;;;;;;;7.90;99.90;;;;;;5008668;28;19917;-77
2023/12/01 10:01:25;;;;;;;;;;;8.00;99.90;;;;;;5006470;28;19975;-77
2023/12/01 10:03:51;;;;;;;;;;;8.00;99.90;;;;;;5003722;28;19925;-76
2023/12/01 10:06:17;;;;;;;;;;;8.10;99.90;;;;;;5017206;28;20288;-75
2023/12/01 10:08:43;;;;;;;;;;;8.10;99.90;;;;;;4997426;28;20403;-75
2023/12/01 10:11:19;;;;;;;;;;;8.20;99.90;;;;;;5005937;28;19917;-75
2023/12/01 10:13:45;;;;;;;;;;;8.20;99.90;;;;;;5011581;28;19914;-77
2023/12/01 10:16:11;;;;;;;;;;;8.20;99.90;;;;;;5004745;28;20535;-76
2023/12/01 10:18:37;;;;;;;;;;;8.20;99.90;;;;;;5009835;28;20443;-75
2023/12/01 10:21:03;;;;;;;;;;;8.20;99.90;;;;;;5003693;28;19929;-75
2023/12/01 10:23:29;;;;;;;;;;;8.30;99.90;;;;;;5006070;28;19944;-75
2023/12/01 10:25:56;;;;;;;;;;;8.30;99.90;;;;;;4997570;28;19918;-77
2023/12/01 10:28:25;;;;;;;;;;;8.30;99.90;;;;;;4997864;28;19937;-75
2023/12/01 10:30:55;;;;;;;;;;;8.30;99.90;;;;;;5003182;28;20023;-76
2023/12/01 10:33:21;;;;;;;;;;;8.30;99.90;;;;;;4997445;28;20424;-75
2023/12/01 10:35:57;;;;;;;;;;;8.30;99.90;;;;;;4994254;28;19921;-75
2023/12/01 10:38:24;;;;;;;;;;;8.30;99.90;;;;;;5011544;28;20008;-77
2023/12/01 10:40:50;;;;;;;;;;;8.30;99.90;;;;;;5008991;28;19917;-77
2023/12/01 10:43:15;;;;;;;;;;;8.30;99.90;;;;;;4991944;28;20336;-75
2023/12/01 10:45:41;;;;;;;;;;;8.30;99.90;;;;;;4991715;28;19994;-75
2023/12/01 10:48:08;;;;;;;;;;;8.30;99.90;;;;;;5000268;28;20320;-75
2023/12/01 10:50:36;;;;;;;;;;;8.20;99.90;;;;;;4993149;28;19996;-77
2023/12/01 10:53:02;;;;;;;;;;;8.20;99.90;;;;;;5024971;28;20316;-77
2023/12/01 10:55:28;;;;;;;;;;;8.20;99.90;;;;;;5009889;28;20284;-75
2023/12/01 10:57:54;;;;;;;;;;;8.20;99.90;;;;;;5011094;28;20419;-77
2023/12/01 11:00:29;;;;;;;;;;;8.30;99.90;;;;;;5003963;28;20004;-77
2023/12/01 11:02:56;;;;;;;;;;;8.40;99.90;;;;;;5013400;28;19964;-75
2023/12/01 11:05:22;;;;;;;;;;;8.60;99.90;;;;;;5002321;28;20336;-76
2023/12/01 11:08:10;;;;;;;;;;;8.80;99.90;;;;;;5002579;28;19914;-77
2023/12/01 11:10:42;;;;;;;;;;;9.00;99.90;;;;;;5000516;28;20395;-77
2023/12/01 11:13:08;;;;;;;;;;;9.20;99.90;;;;;;5012395;28;19944;-75
2023/12/01 11:15:35;;;;;;;;;;;9.40;99.90;;;;;;5010770;28;20372;-76
2023/12/01 11:18:01;;;;;;;;;;;9.70;99.90;;;;;;5010987;28;20324;-77
2023/12/01 11:20:34;;;;;;;;;;;9.90;99.90;;;;;;5011508;28;19913;-75
2023/12/01 11:23:22;;;;;;;;;;;10.10;99.90;;;;;;5007026;28;19917;-75
2023/12/01 11:25:50;;;;;;;;;;;10.10;99.90;;;;;;5016324;28;19909;-76
2023/12/01 11:28:28;;;;;;;;;;;10.20;99.90;;;;;;5007705;28;20347;-75
2023/12/01 11:31:11;;;;;;;;;;;10.20;99.90;;;;;;5007418;28;19913;-77
2023/12/01 11:33:37;;;;;;;;;;;10.30;99.90;;;;;;5014149;28;20340;-77
2023/12/01 11:36:18;;;;;;;;;;;10.20;99.90;;;;;;4998181;28;19932;-75
2023/12/01 11:39:08;;;;;;;;;;;10.10;99.90;;;;;;4996605;28;19945;-77
2023/12/01 11:41:33;;;;;;;;;;;9.90;99.90;;;;;;5001491;28;19913;-75
2023/12/01 11:44:07;;;;;;;;;;;10.10;99.90;;;;;;5016028;28;20440;-76
2023/12/01 11:46:39;;;;;;;;;;;10.50;99.90;;;;;;5014547;28;19913;-75
2023/12/01 11:49:05;;;;;;;;;;;10.70;99.90;;;;;;5005072;28;20402;-75
2023/12/01 11:51:31;;;;;;;;;;;10.80;99.90;;;;;;4997500;28;19989;-75
2023/12/01 11:53:57;;;;;;;;;;;10.90;99.90;;;;;;4996214;28;19914;-75
2023/12/01 11:56:25;;;;;;;;;;;10.70;99.90;;;;;;5007157;28;20340;-76
2023/12/01 11:58:52;;;;;;;;;;;10.60;99.90;;;;;;5013900;28;20292;-76
2023/12/01 12:01:22;;;;;;;;;;;10.80;99.90;;;;;;5014809;28;20361;-75
2023/12/01 12:03:54;;;;;;;;;;;10.60;99.90;;;;;;5015736;28;20000;-75
2023/12/01 12:06:20;;;;;;;;;;;10.20;99.90;;;;;;5014801;28;19956;-75
2023/12/01 12:08:47;;;;;;;;;;;9.90;99.90;;;;;;5014046;28;19913;-76
2023/12/01 12:11:12;;;;;;;;;;;9.50;99.90;;;;;;5009443;28;19916;-77
2023/12/01 12:13:38;;;;;;;;;;;9.30;99.90;;;;;;4997034;28;19922;-75
2023/12/01 12:16:04;;;;;;;;;;;9.20;99.90;;;;;;5010113;28;19910;-75
2023/12/01 12:18:30;;;;;;;;;;;9.20;99.90;;;;;;5005458;28;20365;-75
2023/12/01 12:21:02;;;;;;;;;;;9.30;99.90;;;;;;5013530;28;20001;-75
2023/12/01 12:23:29;;;;;;;;;;;9.30;99.90;;;;;;4999771;28;19917;-77
2023/12/01 12:25:54;;;;;;;;;;;9.30;99.90;;;;;;5013296;28;20380;-75
2023/12/01 12:28:21;;;;;;;;;;;9.40;99.90;;;;;;4996530;28;19914;-76
2023/12/01 12:30:53;;;;;;;;;;;9.50;99.90;;;;;;5008522;28;19964;-76
2023/12/01 12:33:19;;;;;;;;;;;9.50;99.90;;;;;;5007440;28;19933;-76
2023/12/01 12:35:45;;;;;;;;;;;9.30;99.90;;;;;;5013814;28;19914;-77
2023/12/01 12:38:10;;;;;;;;;;;9.10;99.90;;;;;;5007551;28;19913;-77
2023/12/01 12:40:36;;;;;;;;;;;9.00;99.90;;;;;;5001680;28;19921;-75
2023/12/01 12:43:05;;;;;;;;;;;9.10;99.90;;;;;;4995005;28;19914;-75
2023/12/01 12:45:30;;;;;;;;;;;9.10;99.90;;;;;;4994504;28;20009;-75
2023/12/01 12:48:16;;;;;;;;;;;9.10;99.90;;;;;;4996509;28;20441;-76
2023/12/01 12:50:42;;;;;;;;;;;9.20;99.90;;;;;;4995295;28;19914;-77
2023/12/01 12:53:08;;;;;;;;;;;9.30;99.90;;;;;;4994773;28;19924;-75
2023/12/01 12:55:33;;;;;;;;;;;9.40;99.90;;;;;;4997604;28;19913;-75
2023/12/01 12:58:00;;;;;;;;;;;9.70;99.90;;;;;;5009753;28;20269;-76
2023/12/01 13:00:26;;;;;;;;;;;9.90;99.90;;;;;;5006496;28;19921;-76
2023/12/01 13:02:52;;;;;;;;;;;10.10;99.90;;;;;;5008734;28;19964;-77
2023/12/01 13:05:18;;;;;;;;;;;10.20;99.90;;;;;;5013709;28;19921;-75
2023/12/01 13:07:44;;;;;;;;;;;9.90;99.90;;;;;;5013445;28;19960;-75
2023/12/01 13:10:10;;;;;;;;;;;9.80;99.90;;;;;;5013543;28;19913;-75
2023/12/01 13:12:37;;;;;;;;;;;9.60;99.90;;;;;;5013904;28;20399;-75
2023/12/01 13:15:03;;;;;;;;;;;9.40;99.90;;;;;;5009742;28;19913;-76
2023/12/01 13:17:28;;;;;;;;;;;9.40;99.90;;;;;;4995539;28;19929;-76
2023/12/01 13:19:54;;;;;;;;;;;9.50;99.90;;;;;;5009728;28;20013;-76
2023/12/01 13:22:20;;;;;;;;;;;9.70;99.90;;;;;;5006854;28;19918;-75
2023/12/01 13:24:45;;;;;;;;;;;9.90;99.90;;;;;;4996362;28;19931;-76
2023/12/01 13:27:12;;;;;;;;;;;9.80;99.90;;;;;;4993958;28;19925;-76
2023/12/01 13:29:38;;;;;;;;;;;9.70;99.90;;;;;;4994042;28;19996;-77
2023/12/01 13:32:04;;;;;;;;;;;9.50;99.90;;;;;;4997481;28;19974;-75
2023/12/01 13:34:29;;;;;;;;;;;9.30;99.90;;;;;;4994367;28;19921;-75
2023/12/01 13:36:56;;;;;;;;;;;9.10;99.90;;;;;;5012358;28;20212;-75
2023/12/01 13:39:22;;;;;;;;;;;9.00;99.90;;;;;;5012988;28;20376;-76
2023/12/01 13:41:48;;;;;;;;;;;8.90;99.90;;;;;;4996740;28;19914;-77
2023/12/01 13:44:13;;;;;;;;;;;9.10;99.90;;;;;;4996038;28;19910;-77
2023/12/01 13:46:39;;;;;;;;;;;9.20;99.90;;;;;;4993809;28;20052;-75
2023/12/01 13:49:06;;;;;;;;;;;9.10;99.90;;;;;;5000601;28;20365;-75
2023/12/01 13:51:32;;;;;;;;;;;9.20;99.90;;;;;;5004407;28;19918;-75
2023/12/01 13:53:58;;;;;;;;;;;9.10;99.90;;;;;;5010789;28;19924;-76
2023/12/01 13:56:23;;;;;;;;;;;9.10;99.90;;;;;;5001951;28;19917;-75
2023/12/01 13:58:49;;;;;;;;;;;9.00;99.90;;;;;;5001216;28;19969;-76
2023/12/01 14:01:15;;;;;;;;;;;9.10;99.90;;;;;;5002868;28;19913;-75
2023/12/01 14:03:40;;;;;;;;;;;9.10;99.90;;;;;;5008614;28;19917;-75
2023/12/01 14:06:06;;;;;;;;;;;9.20;99.90;;;;;;5000771;28;19914;-76
2023/12/01 14:08:32;;;;;;;;;;;9.10;99.90;;;;;;5000807;28;19921;-77
2023/12/01 14:10:57;;;;;;;;;;;9.10;99.90;;;;;;5004455;28;19917;-75
2023/12/01 14:13:23;;;;;;;;;;;8.90;99.90;;;;;;4998334;28;19952;-75
2023/12/01 14:15:48;;;;;;;;;;;8.80;99.90;;;;;;5008999;28;19917;-75
2023/12/01 14:18:14;;;;;;;;;;;8.70;99.90;;;;;;5011802;28;19968;-77
2023/12/01 14:20:41;;;;;;;;;;;8.60;99.90;;;;;;5004573;28;20019;-75
2023/12/01 14:23:06;;;;;;;;;;;8.50;99.90;;;;;;5013509;28;20000;-76
2023/12/01 14:25:31;;;;;;;;;;;8.20;99.90;;;;;;5013824;28;19949;-76